createdAt,value
2019-01-20T00:00:17.116Z,19.23
2019-01-20T00:02:45.572Z,22.97
2019-01-20T00:05:14.650Z,20.17
2019-01-20T00:07:43.592Z,17.90
2019-01-20T00:10:13.275Z,18.07
2019-01-20T00:12:41.925Z,16.40
2019-01-20T00:15:13.840Z,16.37
2019-01-20T00:17:42.473Z,16.53
2019-01-20T00:20:11.261Z,15.70
2019-01-20T00:22:39.666Z,16.90
2019-01-20T00:25:10.261Z,16.60
2019-01-20T00:27:38.977Z,14.47
2019-01-20T00:30:11.062Z,14.80
2019-01-20T00:32:40.250Z,16.47
2019-01-20T00:35:08.788Z,15.13
2019-01-20T00:37:37.468Z,14.80
2019-01-20T00:40:11.760Z,15.77
2019-01-20T00:42:40.473Z,14.83
2019-01-20T00:45:11.980Z,15.60
2019-01-20T00:47:40.419Z,15.20
2019-01-20T00:50:11.132Z,14.70
2019-01-20T00:52:39.634Z,14.17
2019-01-20T00:55:11.836Z,16.37
2019-01-20T00:57:41.069Z,15.60
2019-01-20T01:00:21.794Z,14.40
2019-01-20T01:02:50.337Z,14.77
2019-01-20T01:05:20.113Z,15.73
2019-01-20T01:07:50.936Z,15.80
2019-01-20T01:10:20.223Z,15.37
2019-01-20T01:12:49.618Z,15.40
2019-01-20T01:15:18.188Z,14.37
2019-01-20T01:17:46.615Z,13.60
2019-01-20T01:20:17.810Z,14.20
2019-01-20T01:22:46.512Z,14.73
2019-01-20T01:25:16.054Z,13.47
2019-01-20T01:27:44.581Z,15.87
2019-01-20T01:30:23.547Z,15.10
2019-01-20T01:32:52.010Z,12.77
2019-01-20T01:35:20.695Z,12.60
2019-01-20T01:37:49.431Z,14.07
2019-01-20T01:40:19.333Z,14.07
2019-01-20T01:42:48.039Z,12.37
2019-01-20T01:45:18.797Z,13.70
2019-01-20T01:47:48.443Z,13.00
2019-01-20T01:50:18.022Z,12.07
2019-01-20T01:52:46.530Z,13.20
2019-01-20T01:55:15.834Z,13.60
2019-01-20T01:57:44.490Z,13.00
2019-01-20T02:00:18.833Z,12.40
2019-01-20T02:02:47.619Z,11.50
2019-01-20T02:05:16.826Z,12.00
2019-01-20T02:07:45.319Z,11.97
2019-01-20T02:10:16.306Z,12.33
2019-01-20T02:12:44.853Z,12.50
2019-01-20T02:15:15.921Z,11.80
2019-01-20T02:17:44.394Z,10.20
2019-01-20T02:20:15.228Z,10.93
2019-01-20T02:22:43.679Z,8.67
2019-01-20T02:27:58.731Z,8.00
2019-01-20T02:30:39.294Z,7.70
2019-01-20T02:33:20.466Z,8.23
2019-01-20T02:36:20.176Z,9.40
2019-01-20T02:39:00.952Z,7.10
2019-01-20T02:41:41.949Z,6.90
2019-01-20T02:44:22.652Z,7.47
2019-01-20T02:47:03.458Z,7.17
2019-01-20T02:49:43.997Z,7.60
2019-01-20T02:52:24.753Z,8.67
2019-01-20T02:55:08.691Z,6.37
2019-01-20T03:00:50.751Z,6.47
2019-01-20T03:03:50.964Z,7.57
2019-01-20T03:09:55.772Z,9.60
2019-01-20T03:12:36.666Z,8.20
2019-01-20T03:21:32.663Z,8.17
2019-01-20T03:27:29.016Z,7.83
2019-01-20T03:30:09.523Z,8.77
2019-01-20T03:32:51.519Z,7.20
2019-01-20T03:35:31.736Z,9.80
2019-01-20T03:38:13.945Z,8.50
2019-01-20T03:44:33.333Z,9.23
2019-01-20T03:59:43.009Z,9.17
2019-01-20T04:02:23.914Z,9.27
2019-01-20T04:08:09.347Z,9.77
2019-01-20T04:10:50.093Z,7.37
2019-01-20T04:13:30.971Z,7.57
2019-01-20T04:16:12.103Z,8.80
2019-01-20T04:21:57.497Z,8.57
2019-01-20T04:24:38.417Z,7.30
2019-01-20T04:30:24.638Z,7.30
2019-01-20T04:36:22.711Z,8.73
2019-01-20T04:39:03.948Z,7.70
2019-01-20T04:41:44.556Z,9.33
2019-01-20T04:44:25.316Z,8.20
2019-01-20T04:47:06.026Z,6.63
2019-01-20T04:59:18.431Z,8.10
2019-01-20T05:01:59.672Z,7.97
2019-01-20T05:04:41.097Z,7.73
2019-01-20T05:07:21.542Z,8.07
2019-01-20T05:10:02.289Z,8.73
2019-01-20T05:16:03.453Z,7.13
2019-01-20T05:22:02.851Z,7.10
2019-01-20T05:24:43.792Z,7.77
2019-01-20T05:27:24.591Z,7.60
2019-01-20T05:36:30.102Z,8.63
2019-01-20T05:39:10.975Z,8.20
2019-01-20T05:41:51.769Z,8.90
2019-01-20T05:47:50.265Z,8.20
2019-01-20T05:53:12.751Z,8.30
2019-01-20T05:55:53.515Z,7.63
2019-01-20T06:01:38.377Z,7.63
2019-01-20T06:04:19.031Z,7.90
2019-01-20T06:07:00.145Z,7.83
2019-01-20T06:09:40.958Z,7.47
2019-01-20T06:12:21.592Z,8.43
2019-01-20T06:18:21.375Z,8.73
2019-01-20T06:21:01.963Z,8.50
2019-01-20T06:26:46.855Z,8.27
2019-01-20T06:29:27.616Z,9.10
2019-01-20T06:32:08.582Z,8.60
2019-01-20T06:34:49.516Z,8.67
2019-01-20T06:37:29.640Z,7.67
2019-01-20T06:40:29.661Z,7.23
2019-01-20T06:43:10.618Z,8.53
2019-01-20T06:46:10.734Z,9.00
2019-01-20T06:51:45.090Z,8.53
2019-01-20T06:54:25.643Z,8.70
2019-01-20T06:57:06.412Z,7.87
2019-01-20T06:59:46.953Z,8.40
2019-01-20T07:02:27.619Z,8.80
2019-01-20T07:05:08.319Z,7.90
2019-01-20T07:07:49.465Z,7.90
2019-01-20T07:10:30.616Z,9.33
2019-01-20T07:13:11.503Z,8.80
2019-01-20T07:15:51.967Z,8.13
2019-01-20T07:18:32.458Z,9.60
2019-01-20T07:21:13.380Z,10.20
2019-01-20T07:30:04.646Z,8.23
2019-01-20T07:36:22.174Z,8.20
2019-01-20T07:39:03.100Z,9.30
2019-01-20T07:41:43.582Z,9.00
2019-01-20T07:44:43.542Z,9.17
2019-01-20T07:47:24.135Z,7.70
2019-01-20T07:53:07.081Z,8.50
2019-01-20T07:55:47.780Z,9.97
2019-01-20T07:58:28.937Z,7.70
2019-01-20T08:04:30.623Z,9.53
2019-01-20T08:07:11.480Z,10.20
2019-01-20T08:09:52.572Z,9.17
2019-01-20T08:12:33.104Z,9.53
2019-01-20T08:15:14.183Z,10.13
2019-01-20T08:17:54.846Z,11.30
2019-01-20T08:20:35.786Z,8.00
2019-01-20T08:33:01.115Z,9.47
2019-01-20T08:35:42.485Z,9.10
2019-01-20T08:38:23.080Z,9.63
2019-01-20T08:43:47.356Z,9.40
2019-01-20T08:46:27.870Z,9.07
2019-01-20T08:49:08.592Z,9.67
2019-01-20T08:52:08.656Z,10.83
2019-01-20T08:54:49.535Z,10.93
2019-01-20T08:57:29.826Z,9.03
2019-01-20T09:00:29.993Z,10.03
2019-01-20T09:03:29.837Z,11.67
2019-01-20T09:06:10.197Z,9.87
2019-01-20T09:11:33.121Z,10.67
2019-01-20T09:20:38.019Z,11.10
2019-01-20T09:26:58.529Z,11.63
2019-01-20T09:29:40.890Z,10.80
2019-01-20T09:32:21.194Z,10.83
2019-01-20T09:38:19.944Z,12.30
2019-01-20T09:41:00.504Z,11.93
2019-01-20T09:43:47.088Z,13.13
2019-01-20T09:46:23.859Z,11.53
2019-01-20T09:49:04.659Z,13.03
2019-01-20T09:55:04.813Z,13.20
2019-01-20T09:57:45.421Z,12.90
2019-01-20T10:00:45.349Z,12.80
2019-01-20T10:06:42.851Z,12.20
2019-01-20T10:09:24.044Z,13.20
2019-01-20T10:12:04.464Z,13.27
2019-01-20T10:45:40.015Z,13.90
2019-01-20T10:54:40.911Z,14.00
2019-01-20T10:57:21.916Z,13.70
2019-01-20T11:00:02.644Z,15.77
2019-01-20T11:02:43.890Z,14.60
2019-01-20T11:05:30.133Z,14.50
2019-01-20T11:08:07.115Z,14.20
2019-01-20T11:10:48.116Z,14.80
2019-01-20T11:13:28.867Z,15.80
2019-01-20T11:16:09.543Z,14.63
2019-01-20T11:21:33.682Z,14.90
2019-01-20T11:24:13.841Z,15.17
2019-01-20T11:26:54.775Z,14.30
2019-01-20T11:29:35.946Z,13.70
2019-01-20T11:32:16.864Z,14.50
2019-01-20T11:34:57.813Z,15.03
2019-01-20T11:37:38.950Z,15.90
2019-01-20T11:40:19.572Z,15.50
2019-01-20T11:43:00.598Z,15.37
2019-01-20T11:45:41.132Z,16.27
2019-01-20T11:48:41.075Z,16.00
2019-01-20T11:51:21.677Z,15.60
2019-01-20T11:54:02.527Z,16.30
2019-01-20T12:00:02.411Z,16.53
2019-01-20T12:02:43.230Z,16.23
2019-01-20T12:05:23.671Z,17.03
2019-01-20T12:08:04.218Z,13.90
2019-01-20T12:10:45.342Z,16.13
2019-01-20T12:16:44.844Z,16.73
2019-01-20T12:19:25.642Z,14.90
2019-01-20T12:25:11.798Z,16.50
2019-01-20T12:27:52.396Z,15.67
2019-01-20T12:30:33.150Z,16.70
2019-01-20T12:36:49.815Z,18.80
2019-01-20T12:42:50.273Z,14.93
2019-01-20T12:48:13.454Z,16.30
2019-01-20T12:54:10.296Z,17.73
2019-01-20T13:00:26.333Z,16.03
2019-01-20T13:06:25.954Z,17.80
2019-01-20T13:15:54.480Z,17.27
2019-01-20T13:18:35.514Z,16.20
2019-01-20T13:24:20.736Z,17.60
2019-01-20T13:30:17.465Z,16.23
2019-01-20T13:36:15.290Z,15.23
2019-01-20T13:38:56.305Z,18.00
2019-01-20T13:41:57.774Z,16.47
2019-01-20T13:44:38.404Z,14.60
2019-01-20T13:47:20.156Z,16.30
2019-01-20T13:50:20.212Z,15.17
2019-01-20T13:58:57.257Z,17.20
2019-01-20T14:05:45.578Z,16.80
2019-01-20T14:08:33.690Z,15.90
2019-01-20T14:11:21.518Z,15.40
2019-01-20T14:14:09.361Z,19.70
2019-01-20T14:16:57.435Z,17.20
2019-01-20T14:19:45.304Z,17.20
2019-01-20T14:26:03.450Z,16.63
2019-01-20T14:28:51.647Z,16.77
2019-01-20T14:35:10.421Z,16.07
2019-01-20T14:37:58.238Z,16.07
2019-01-20T14:40:46.007Z,16.13
2019-01-20T14:43:34.093Z,16.60
2019-01-20T14:46:21.902Z,14.33
2019-01-20T14:52:24.085Z,15.27
2019-01-20T14:55:12.329Z,16.30
2019-01-20T14:58:00.426Z,16.83
2019-01-20T15:04:04.617Z,16.00
2019-01-20T15:10:09.639Z,15.63
2019-01-20T15:19:13.676Z,16.00
2019-01-20T15:21:54.585Z,17.03
2019-01-20T15:24:38.606Z,16.50
2019-01-20T15:30:02.117Z,15.30
2019-01-20T15:36:00.873Z,17.40
2019-01-20T15:38:42.279Z,18.23
2019-01-20T15:41:23.271Z,16.63
2019-01-20T15:44:04.684Z,15.80
2019-01-20T15:49:51.615Z,17.23
2019-01-20T16:02:00.617Z,16.70
2019-01-20T16:04:41.226Z,17.23
2019-01-20T16:10:30.189Z,15.47
2019-01-20T16:13:11.389Z,16.23
2019-01-20T16:18:57.520Z,17.40
2019-01-20T16:21:38.374Z,18.80
2019-01-20T16:24:19.481Z,16.73
2019-01-20T16:27:01.818Z,17.43
2019-01-20T16:29:43.094Z,17.30
2019-01-20T16:32:24.145Z,16.90
2019-01-20T16:35:04.675Z,16.17
2019-01-20T16:47:31.529Z,15.43
2019-01-20T16:59:36.864Z,17.00
2019-01-20T17:02:17.601Z,16.83
2019-01-20T17:14:10.551Z,17.00
2019-01-20T17:20:08.701Z,17.00
2019-01-20T17:22:49.424Z,18.47
2019-01-20T17:25:30.444Z,19.47
2019-01-20T17:31:49.421Z,17.77
2019-01-20T17:37:40.518Z,17.20
2019-01-20T17:40:28.431Z,16.87
2019-01-20T17:43:34.509Z,19.33
2019-01-20T17:46:22.304Z,18.33
2019-01-20T17:49:10.577Z,19.17
2019-01-20T17:51:58.388Z,22.07
2019-01-20T17:55:04.229Z,22.80
2019-01-20T17:57:52.256Z,25.03
2019-01-20T18:04:10.680Z,26.63
2019-01-20T18:06:58.785Z,27.37
2019-01-20T18:09:47.143Z,22.80
2019-01-20T18:12:53.422Z,20.27
2019-01-20T18:16:19.586Z,18.43
2019-01-20T18:19:07.371Z,20.27
2019-01-20T18:21:55.487Z,20.87
2019-01-20T18:24:43.710Z,20.23
2019-01-20T18:31:00.285Z,19.30
2019-01-20T18:37:28.280Z,22.33
2019-01-20T18:40:08.508Z,22.03
2019-01-20T18:45:53.278Z,20.53
2019-01-20T18:48:34.076Z,21.77
2019-01-20T18:51:15.071Z,19.60
2019-01-20T18:57:15.366Z,20.13
2019-01-20T18:59:56.593Z,19.93
2019-01-20T19:02:56.638Z,20.50
2019-01-20T19:09:15.295Z,20.60
2019-01-20T19:15:35.865Z,20.73
2019-01-20T19:18:19.153Z,19.23
2019-01-20T19:20:59.274Z,20.77
2019-01-20T19:33:12.213Z,18.00
2019-01-20T19:36:12.305Z,18.40
2019-01-20T19:38:53.199Z,19.70
2019-01-20T19:41:34.053Z,19.47
2019-01-20T19:44:15.250Z,19.73
2019-01-20T19:46:56.018Z,21.57
2019-01-20T19:49:38.192Z,21.60
2019-01-20T19:58:39.129Z,20.97
2019-01-20T20:43:58.168Z,21.47
2019-01-20T20:46:57.791Z,22.40
2019-01-20T21:45:06.183Z,48.17
2019-01-20T21:47:38.245Z,36.30
2019-01-20T21:50:09.736Z,27.20
2019-01-20T21:52:39.065Z,22.87
2019-01-20T21:55:07.909Z,24.40
2019-01-20T21:57:36.334Z,21.43
2019-01-20T22:00:13.922Z,21.57
2019-01-20T22:02:42.349Z,19.10
2019-01-20T22:05:11.495Z,19.20
2019-01-20T22:07:40.329Z,19.70
2019-01-20T22:10:14.903Z,18.87
2019-01-20T22:12:43.425Z,20.70
2019-01-20T22:15:12.899Z,16.53
2019-01-20T22:17:41.768Z,18.47
2019-01-20T22:20:12.949Z,19.50
2019-01-20T22:22:41.936Z,18.20
2019-01-20T22:25:12.325Z,19.13
2019-01-20T22:27:41.279Z,18.90
2019-01-20T22:30:21.238Z,19.30
2019-01-20T22:32:51.860Z,21.07
2019-01-20T22:35:20.456Z,18.93
2019-01-20T22:37:49.109Z,19.47
2019-01-20T22:40:18.804Z,19.97
2019-01-20T22:42:47.475Z,19.07
2019-01-20T22:45:18.166Z,19.70
2019-01-20T22:47:46.841Z,18.63
2019-01-20T22:50:15.653Z,17.83
2019-01-20T22:52:45.665Z,16.83
2019-01-20T22:55:16.215Z,20.37
2019-01-20T22:57:45.061Z,18.40
2019-01-20T23:00:22.642Z,20.23
2019-01-20T23:02:51.191Z,19.17
2019-01-20T23:05:19.978Z,18.80
2019-01-20T23:07:48.526Z,19.00
2019-01-20T23:10:16.963Z,17.80
2019-01-20T23:12:45.703Z,18.93
2019-01-20T23:15:14.231Z,19.57
2019-01-20T23:17:42.768Z,20.23
2019-01-20T23:20:16.510Z,19.63
2019-01-20T23:22:45.415Z,17.73
2019-01-20T23:25:14.013Z,19.43
2019-01-20T23:27:42.525Z,18.60
2019-01-20T23:30:13.944Z,19.33
2019-01-20T23:32:42.388Z,19.60
2019-01-20T23:35:10.969Z,18.17
2019-01-20T23:37:39.482Z,19.00
2019-01-20T23:40:15.795Z,17.90
2019-01-20T23:42:44.682Z,16.70
2019-01-20T23:45:13.708Z,17.40
2019-01-20T23:47:42.559Z,17.50
2019-01-20T23:50:13.488Z,16.03
2019-01-20T23:52:42.339Z,18.97
2019-01-20T23:55:12.728Z,17.10
2019-01-20T23:57:41.544Z,16.63
